sensor_id;sensor_type;location;lat;lon;timestamp;P1;durP1;ratioP1;P2;durP2;ratioP2
4700;SDS011;8724;51.272;6.554;2024-01-30T00:01:47;6.60;;;5.90;;
4700;SDS011;8724;51.272;6.554;2024-01-30T00:04:15;6.37;;;5.50;;
4700;SDS011;8724;51.272;6.554;2024-01-30T00:06:44;6.23;;;5.63;;
4700;SDS011;8724;51.272;6.554;2024-01-30T00:09:12;5.90;;;5.30;;
4700;SDS011;8724;51.272;6.554;2024-01-30T00:11:41;6.77;;;6.07;;
4700;SDS011;8724;51.272;6.554;2024-01-30T00:14:11;5.70;;;5.07;;
4700;SDS011;8724;51.272;6.554;2024-01-30T00:16:40;7.70;;;5.93;;
4700;SDS011;8724;51.272;6.554;2024-01-30T00:19:08;7.63;;;5.23;;
4700;SDS011;8724;51.272;6.554;2024-01-30T00:21:37;5.90;;;5.30;;
4700;SDS011;8724;51.272;6.554;2024-01-30T00:24:05;5.90;;;5.30;;
4700;SDS011;8724;51.272;6.554;2024-01-30T00:26:33;6.53;;;5.80;;
4700;SDS011;8724;51.272;6.554;2024-01-30T00:29:02;6.40;;;5.80;;
4700;SDS011;8724;51.272;6.554;2024-01-30T00:31:31;7.80;;;6.07;;
4700;SDS011;8724;51.272;6.554;2024-01-30T00:33:59;7.60;;;6.07;;
4700;SDS011;8724;51.272;6.554;2024-01-30T00:36:28;6.43;;;5.77;;
4700;SDS011;8724;51.272;6.554;2024-01-30T00:38:57;6.13;;;5.20;;
4700;SDS011;8724;51.272;6.554;2024-01-30T00:41:25;6.87;;;5.87;;
4700;SDS011;8724;51.272;6.554;2024-01-30T00:43:53;6.90;;;6.20;;
4700;SDS011;8724;51.272;6.554;2024-01-30T00:46:21;6.47;;;5.80;;
4700;SDS011;8724;51.272;6.554;2024-01-30T00:48:51;6.63;;;6.03;;
4700;SDS011;8724;51.272;6.554;2024-01-30T00:51:20;6.30;;;5.63;;
4700;SDS011;8724;51.272;6.554;2024-01-30T00:53:48;7.60;;;6.00;;
4700;SDS011;8724;51.272;6.554;2024-01-30T00:56:17;6.20;;;5.60;;
4700;SDS011;8724;51.272;6.554;2024-01-30T00:58:45;6.27;;;5.67;;
4700;SDS011;8724;51.272;6.554;2024-01-30T01:01:13;6.20;;;5.60;;
4700;SDS011;8724;51.272;6.554;2024-01-30T01:03:42;7.60;;;6.07;;
4700;SDS011;8724;51.272;6.554;2024-01-30T01:06:12;7.17;;;6.30;;
4700;SDS011;8724;51.272;6.554;2024-01-30T01:08:41;7.37;;;5.87;;
4700;SDS011;8724;51.272;6.554;2024-01-30T01:11:09;7.87;;;5.80;;
4700;SDS011;8724;51.272;6.554;2024-01-30T01:13:37;11.13;;;5.80;;
4700;SDS011;8724;51.272;6.554;2024-01-30T01:16:06;6.67;;;5.73;;
4700;SDS011;8724;51.272;6.554;2024-01-30T01:18:34;8.30;;;6.13;;
4700;SDS011;8724;51.272;6.554;2024-01-30T01:21:02;8.47;;;7.07;;
4700;SDS011;8724;51.272;6.554;2024-01-30T01:23:32;7.53;;;6.50;;
4700;SDS011;8724;51.272;6.554;2024-01-30T01:26:00;8.70;;;6.67;;
4700;SDS011;8724;51.272;6.554;2024-01-30T01:28:28;7.10;;;6.30;;
4700;SDS011;8724;51.272;6.554;2024-01-30T01:30:56;9.27;;;7.37;;
4700;SDS011;8724;51.272;6.554;2024-01-30T01:33:31;8.83;;;5.83;;
4700;SDS011;8724;51.272;6.554;2024-01-30T01:36:00;8.70;;;5.83;;
4700;SDS011;8724;51.272;6.554;2024-01-30T01:38:29;7.07;;;6.37;;
4700;SDS011;8724;51.272;6.554;2024-01-30T01:40:58;6.80;;;6.10;;
4700;SDS011;8724;51.272;6.554;2024-01-30T01:43:27;6.80;;;6.13;;
4700;SDS011;8724;51.272;6.554;2024-01-30T01:45:55;7.80;;;6.07;;
4700;SDS011;8724;51.272;6.554;2024-01-30T01:48:23;7.70;;;6.03;;
4700;SDS011;8724;51.272;6.554;2024-01-30T01:50:52;6.90;;;5.97;;
4700;SDS011;8724;51.272;6.554;2024-01-30T01:53:20;7.80;;;6.53;;
4700;SDS011;8724;51.272;6.554;2024-01-30T01:55:49;9.73;;;6.77;;
4700;SDS011;8724;51.272;6.554;2024-01-30T01:58:20;7.17;;;6.10;;
4700;SDS011;8724;51.272;6.554;2024-01-30T02:00:50;9.97;;;6.37;;
4700;SDS011;8724;51.272;6.554;2024-01-30T02:03:19;6.37;;;5.83;;
4700;SDS011;8724;51.272;6.554;2024-01-30T02:05:48;9.07;;;7.13;;
4700;SDS011;8724;51.272;6.554;2024-01-30T02:08:18;7.60;;;6.17;;
4700;SDS011;8724;51.272;6.554;2024-01-30T02:10:46;6.97;;;6.27;;
4700;SDS011;8724;51.272;6.554;2024-01-30T02:13:14;11.60;;;6.40;;
4700;SDS011;8724;51.272;6.554;2024-01-30T02:15:44;6.93;;;6.20;;
4700;SDS011;8724;51.272;6.554;2024-01-30T02:18:16;7.47;;;5.83;;
4700;SDS011;8724;51.272;6.554;2024-01-30T02:20:45;8.40;;;6.73;;
4700;SDS011;8724;51.272;6.554;2024-01-30T02:23:15;7.33;;;6.47;;
4700;SDS011;8724;51.272;6.554;2024-01-30T02:25:43;6.97;;;6.13;;
4700;SDS011;8724;51.272;6.554;2024-01-30T02:28:12;6.20;;;5.47;;
4700;SDS011;8724;51.272;6.554;2024-01-30T02:30:40;6.93;;;5.97;;
4700;SDS011;8724;51.272;6.554;2024-01-30T02:33:10;8.10;;;6.50;;
4700;SDS011;8724;51.272;6.554;2024-01-30T02:35:38;7.70;;;5.80;;
4700;SDS011;8724;51.272;6.554;2024-01-30T02:38:06;8.03;;;6.70;;
4700;SDS011;8724;51.272;6.554;2024-01-30T02:40:36;10.93;;;6.20;;
4700;SDS011;8724;51.272;6.554;2024-01-30T02:43:04;9.13;;;6.20;;
4700;SDS011;8724;51.272;6.554;2024-01-30T02:45:32;7.70;;;6.37;;
4700;SDS011;8724;51.272;6.554;2024-01-30T02:48:00;6.50;;;5.90;;
4700;SDS011;8724;51.272;6.554;2024-01-30T02:50:29;8.80;;;7.20;;
4700;SDS011;8724;51.272;6.554;2024-01-30T02:52:57;10.63;;;6.60;;
4700;SDS011;8724;51.272;6.554;2024-01-30T02:55:25;8.90;;;6.80;;
4700;SDS011;8724;51.272;6.554;2024-01-30T02:57:54;7.70;;;6.10;;
4700;SDS011;8724;51.272;6.554;2024-01-30T03:00:23;7.70;;;5.80;;
4700;SDS011;8724;51.272;6.554;2024-01-30T03:02:51;6.53;;;5.40;;
4700;SDS011;8724;51.272;6.554;2024-01-30T03:05:19;7.47;;;6.27;;
4700;SDS011;8724;51.272;6.554;2024-01-30T03:07:47;6.77;;;6.10;;
4700;SDS011;8724;51.272;6.554;2024-01-30T03:10:16;6.57;;;5.90;;
4700;SDS011;8724;51.272;6.554;2024-01-30T03:12:44;8.00;;;7.17;;
4700;SDS011;8724;51.272;6.554;2024-01-30T03:15:14;6.40;;;5.80;;
4700;SDS011;8724;51.272;6.554;2024-01-30T03:17:42;8.47;;;6.50;;
4700;SDS011;8724;51.272;6.554;2024-01-30T03:20:10;7.10;;;6.40;;
4700;SDS011;8724;51.272;6.554;2024-01-30T03:22:39;7.03;;;6.33;;
4700;SDS011;8724;51.272;6.554;2024-01-30T03:25:07;7.33;;;6.63;;
4700;SDS011;8724;51.272;6.554;2024-01-30T03:27:35;9.40;;;6.70;;
4700;SDS011;8724;51.272;6.554;2024-01-30T03:30:04;7.73;;;6.93;;
4700;SDS011;8724;51.272;6.554;2024-01-30T03:32:35;7.30;;;6.50;;
4700;SDS011;8724;51.272;6.554;2024-01-30T03:35:03;7.20;;;6.30;;
4700;SDS011;8724;51.272;6.554;2024-01-30T03:37:33;6.97;;;6.07;;
4700;SDS011;8724;51.272;6.554;2024-01-30T03:40:01;10.33;;;6.50;;
4700;SDS011;8724;51.272;6.554;2024-01-30T03:42:30;7.03;;;6.27;;
4700;SDS011;8724;51.272;6.554;2024-01-30T03:44:59;8.33;;;6.87;;
4700;SDS011;8724;51.272;6.554;2024-01-30T03:47:27;9.77;;;6.10;;
4700;SDS011;8724;51.272;6.554;2024-01-30T03:49:56;8.37;;;6.80;;
4700;SDS011;8724;51.272;6.554;2024-01-30T03:52:24;7.63;;;6.70;;
4700;SDS011;8724;51.272;6.554;2024-01-30T03:54:52;7.13;;;6.23;;
4700;SDS011;8724;51.272;6.554;2024-01-30T03:57:21;7.10;;;5.60;;
4700;SDS011;8724;51.272;6.554;2024-01-30T03:59:49;11.23;;;6.27;;
4700;SDS011;8724;51.272;6.554;2024-01-30T04:02:17;7.67;;;6.37;;
4700;SDS011;8724;51.272;6.554;2024-01-30T04:04:45;7.43;;;6.63;;
4700;SDS011;8724;51.272;6.554;2024-01-30T04:07:15;8.90;;;6.63;;
4700;SDS011;8724;51.272;6.554;2024-01-30T04:09:45;8.57;;;6.70;;
4700;SDS011;8724;51.272;6.554;2024-01-30T04:12:13;11.83;;;6.80;;
4700;SDS011;8724;51.272;6.554;2024-01-30T04:14:41;8.73;;;7.03;;
4700;SDS011;8724;51.272;6.554;2024-01-30T04:17:10;6.40;;;5.70;;
4700;SDS011;8724;51.272;6.554;2024-01-30T04:19:38;8.30;;;6.70;;
4700;SDS011;8724;51.272;6.554;2024-01-30T04:22:06;10.40;;;6.77;;
4700;SDS011;8724;51.272;6.554;2024-01-30T04:24:36;8.03;;;6.73;;
4700;SDS011;8724;51.272;6.554;2024-01-30T04:27:04;10.70;;;5.37;;
4700;SDS011;8724;51.272;6.554;2024-01-30T04:29:32;8.07;;;6.67;;
4700;SDS011;8724;51.272;6.554;2024-01-30T04:32:01;8.03;;;6.20;;
4700;SDS011;8724;51.272;6.554;2024-01-30T04:34:29;10.37;;;7.10;;
4700;SDS011;8724;51.272;6.554;2024-01-30T04:38:47;7.83;;;5.87;;
4700;SDS011;8724;51.272;6.554;2024-01-30T04:41:15;5.63;;;5.10;;
4700;SDS011;8724;51.272;6.554;2024-01-30T04:43:43;7.47;;;6.73;;
4700;SDS011;8724;51.272;6.554;2024-01-30T04:46:11;6.27;;;5.63;;
4700;SDS011;8724;51.272;6.554;2024-01-30T04:48:39;8.53;;;7.03;;
4700;SDS011;8724;51.272;6.554;2024-01-30T04:51:08;6.57;;;5.97;;
4700;SDS011;8724;51.272;6.554;2024-01-30T04:53:36;8.80;;;6.33;;
4700;SDS011;8724;51.272;6.554;2024-01-30T04:56:07;6.40;;;5.60;;
4700;SDS011;8724;51.272;6.554;2024-01-30T04:58:35;6.53;;;5.90;;
4700;SDS011;8724;51.272;6.554;2024-01-30T05:01:03;6.47;;;5.83;;
4700;SDS011;8724;51.272;6.554;2024-01-30T05:03:32;8.20;;;6.77;;
4700;SDS011;8724;51.272;6.554;2024-01-30T05:06:01;10.03;;;7.27;;
4700;SDS011;8724;51.272;6.554;2024-01-30T05:08:30;6.77;;;6.17;;
4700;SDS011;8724;51.272;6.554;2024-01-30T05:10:59;8.37;;;6.63;;
4700;SDS011;8724;51.272;6.554;2024-01-30T05:13:31;7.20;;;6.57;;
4700;SDS011;8724;51.272;6.554;2024-01-30T05:16:01;7.87;;;6.37;;
4700;SDS011;8724;51.272;6.554;2024-01-30T05:18:29;9.53;;;7.50;;
4700;SDS011;8724;51.272;6.554;2024-01-30T05:20:58;8.40;;;6.50;;
4700;SDS011;8724;51.272;6.554;2024-01-30T05:23:26;7.10;;;6.10;;
4700;SDS011;8724;51.272;6.554;2024-01-30T05:25:54;6.43;;;5.83;;
4700;SDS011;8724;51.272;6.554;2024-01-30T05:28:23;8.53;;;6.30;;
4700;SDS011;8724;51.272;6.554;2024-01-30T05:30:52;7.30;;;6.53;;
4700;SDS011;8724;51.272;6.554;2024-01-30T05:33:20;6.17;;;5.67;;
4700;SDS011;8724;51.272;6.554;2024-01-30T05:35:49;6.33;;;5.70;;
4700;SDS011;8724;51.272;6.554;2024-01-30T05:38:20;7.27;;;6.50;;
4700;SDS011;8724;51.272;6.554;2024-01-30T05:40:49;8.60;;;5.57;;
4700;SDS011;8724;51.272;6.554;2024-01-30T05:43:17;6.53;;;5.87;;
4700;SDS011;8724;51.272;6.554;2024-01-30T05:45:46;8.60;;;6.40;;
4700;SDS011;8724;51.272;6.554;2024-01-30T05:48:15;9.50;;;7.13;;
4700;SDS011;8724;51.272;6.554;2024-01-30T05:50:43;10.47;;;6.67;;
4700;SDS011;8724;51.272;6.554;2024-01-30T05:53:12;7.60;;;6.50;;
4700;SDS011;8724;51.272;6.554;2024-01-30T05:55:40;7.07;;;6.37;;
4700;SDS011;8724;51.272;6.554;2024-01-30T05:58:08;8.00;;;6.43;;
4700;SDS011;8724;51.272;6.554;2024-01-30T06:00:36;6.80;;;5.60;;
4700;SDS011;8724;51.272;6.554;2024-01-30T06:03:04;7.80;;;6.77;;
4700;SDS011;8724;51.272;6.554;2024-01-30T06:05:34;6.37;;;5.53;;
4700;SDS011;8724;51.272;6.554;2024-01-30T06:08:02;5.83;;;5.30;;
4700;SDS011;8724;51.272;6.554;2024-01-30T06:10:31;6.17;;;5.57;;
4700;SDS011;8724;51.272;6.554;2024-01-30T06:12:59;8.00;;;5.67;;
4700;SDS011;8724;51.272;6.554;2024-01-30T06:15:27;8.77;;;6.07;;
4700;SDS011;8724;51.272;6.554;2024-01-30T06:17:56;9.63;;;5.80;;
4700;SDS011;8724;51.272;6.554;2024-01-30T06:20:24;7.53;;;6.23;;
4700;SDS011;8724;51.272;6.554;2024-01-30T06:22:54;10.60;;;6.10;;
4700;SDS011;8724;51.272;6.554;2024-01-30T06:25:22;6.33;;;5.60;;
4700;SDS011;8724;51.272;6.554;2024-01-30T06:27:50;6.80;;;5.67;;
4700;SDS011;8724;51.272;6.554;2024-01-30T06:30:19;5.43;;;5.03;;
4700;SDS011;8724;51.272;6.554;2024-01-30T06:32:47;6.90;;;5.73;;
4700;SDS011;8724;51.272;6.554;2024-01-30T06:35:15;5.40;;;4.90;;
4700;SDS011;8724;51.272;6.554;2024-01-30T06:37:44;7.00;;;5.50;;
4700;SDS011;8724;51.272;6.554;2024-01-30T06:40:13;7.87;;;5.33;;
4700;SDS011;8724;51.272;6.554;2024-01-30T06:42:42;7.67;;;6.07;;
4700;SDS011;8724;51.272;6.554;2024-01-30T06:45:10;7.57;;;5.63;;
4700;SDS011;8724;51.272;6.554;2024-01-30T06:47:38;9.60;;;5.67;;
4700;SDS011;8724;51.272;6.554;2024-01-30T06:50:06;8.80;;;5.67;;
4700;SDS011;8724;51.272;6.554;2024-01-30T06:52:35;5.43;;;4.90;;
4700;SDS011;8724;51.272;6.554;2024-01-30T06:55:03;5.37;;;4.90;;
4700;SDS011;8724;51.272;6.554;2024-01-30T06:57:33;8.37;;;6.13;;
4700;SDS011;8724;51.272;6.554;2024-01-30T07:00:02;13.73;;;4.90;;
4700;SDS011;8724;51.272;6.554;2024-01-30T07:02:30;6.43;;;5.83;;
4700;SDS011;8724;51.272;6.554;2024-01-30T07:04:59;5.70;;;5.10;;
4700;SDS011;8724;51.272;6.554;2024-01-30T07:07:27;5.97;;;5.30;;
4700;SDS011;8724;51.272;6.554;2024-01-30T07:09:55;7.13;;;5.50;;
4700;SDS011;8724;51.272;6.554;2024-01-30T07:12:24;5.97;;;5.17;;
4700;SDS011;8724;51.272;6.554;2024-01-30T07:14:54;6.60;;;5.17;;
4700;SDS011;8724;51.272;6.554;2024-01-30T07:17:23;6.93;;;5.53;;
4700;SDS011;8724;51.272;6.554;2024-01-30T07:19:51;8.90;;;5.70;;
4700;SDS011;8724;51.272;6.554;2024-01-30T07:22:19;6.67;;;5.33;;
4700;SDS011;8724;51.272;6.554;2024-01-30T07:24:47;7.60;;;6.23;;
4700;SDS011;8724;51.272;6.554;2024-01-30T07:27:17;6.40;;;5.70;;
4700;SDS011;8724;51.272;6.554;2024-01-30T07:29:45;6.87;;;6.13;;
4700;SDS011;8724;51.272;6.554;2024-01-30T07:32:15;5.43;;;4.93;;
4700;SDS011;8724;51.272;6.554;2024-01-30T07:34:45;7.57;;;5.67;;
4700;SDS011;8724;51.272;6.554;2024-01-30T07:37:31;10.53;;;5.80;;
4700;SDS011;8724;51.272;6.554;2024-01-30T07:40:00;6.87;;;5.60;;
4700;SDS011;8724;51.272;6.554;2024-01-30T07:42:30;5.67;;;5.13;;
4700;SDS011;8724;51.272;6.554;2024-01-30T07:44:58;6.00;;;5.20;;
4700;SDS011;8724;51.272;6.554;2024-01-30T07:47:28;7.30;;;5.83;;
4700;SDS011;8724;51.272;6.554;2024-01-30T07:49:57;6.77;;;5.80;;
4700;SDS011;8724;51.272;6.554;2024-01-30T07:52:25;6.30;;;5.63;;
4700;SDS011;8724;51.272;6.554;2024-01-30T07:54:53;6.53;;;5.53;;
4700;SDS011;8724;51.272;6.554;2024-01-30T07:57:22;6.70;;;5.73;;
4700;SDS011;8724;51.272;6.554;2024-01-30T07:59:50;7.00;;;5.70;;
4700;SDS011;8724;51.272;6.554;2024-01-30T08:02:19;6.33;;;4.90;;
4700;SDS011;8724;51.272;6.554;2024-01-30T08:04:48;6.67;;;5.37;;
4700;SDS011;8724;51.272;6.554;2024-01-30T08:07:16;7.00;;;6.17;;
4700;SDS011;8724;51.272;6.554;2024-01-30T08:09:45;7.93;;;5.93;;
4700;SDS011;8724;51.272;6.554;2024-01-30T08:12:13;5.87;;;5.30;;
4700;SDS011;8724;51.272;6.554;2024-01-30T08:14:41;6.70;;;5.73;;
4700;SDS011;8724;51.272;6.554;2024-01-30T08:17:09;6.03;;;5.33;;
4700;SDS011;8724;51.272;6.554;2024-01-30T08:19:37;8.70;;;5.67;;
4700;SDS011;8724;51.272;6.554;2024-01-30T08:22:07;5.40;;;4.90;;
4700;SDS011;8724;51.272;6.554;2024-01-30T08:24:35;5.17;;;4.67;;
4700;SDS011;8724;51.272;6.554;2024-01-30T08:27:03;6.97;;;5.37;;
4700;SDS011;8724;51.272;6.554;2024-01-30T08:29:32;6.57;;;5.03;;
4700;SDS011;8724;51.272;6.554;2024-01-30T08:32:00;6.23;;;5.73;;
4700;SDS011;8724;51.272;6.554;2024-01-30T08:34:28;6.17;;;5.10;;
4700;SDS011;8724;51.272;6.554;2024-01-30T08:36:56;7.07;;;5.03;;
4700;SDS011;8724;51.272;6.554;2024-01-30T08:39:26;6.40;;;5.77;;
4700;SDS011;8724;51.272;6.554;2024-01-30T08:41:54;7.33;;;5.10;;
4700;SDS011;8724;51.272;6.554;2024-01-30T08:44:22;5.77;;;4.50;;
4700;SDS011;8724;51.272;6.554;2024-01-30T08:46:50;5.70;;;5.03;;
4700;SDS011;8724;51.272;6.554;2024-01-30T08:49:19;5.53;;;4.83;;
4700;SDS011;8724;51.272;6.554;2024-01-30T08:51:48;8.03;;;5.43;;
4700;SDS011;8724;51.272;6.554;2024-01-30T08:54:16;5.70;;;5.10;;
4700;SDS011;8724;51.272;6.554;2024-01-30T08:56:46;6.13;;;5.53;;
4700;SDS011;8724;51.272;6.554;2024-01-30T08:59:14;6.97;;;5.07;;
4700;SDS011;8724;51.272;6.554;2024-01-30T09:01:42;6.93;;;5.70;;
4700;SDS011;8724;51.272;6.554;2024-01-30T09:04:28;6.37;;;5.53;;
4700;SDS011;8724;51.272;6.554;2024-01-30T09:06:57;7.17;;;5.80;;
4700;SDS011;8724;51.272;6.554;2024-01-30T09:09:25;5.93;;;5.27;;
4700;SDS011;8724;51.272;6.554;2024-01-30T09:11:54;8.70;;;5.50;;
4700;SDS011;8724;51.272;6.554;2024-01-30T09:14:24;5.97;;;5.27;;
4700;SDS011;8724;51.272;6.554;2024-01-30T09:16:52;6.50;;;5.80;;
4700;SDS011;8724;51.272;6.554;2024-01-30T09:19:20;7.63;;;5.87;;
4700;SDS011;8724;51.272;6.554;2024-01-30T09:21:49;6.23;;;5.63;;
4700;SDS011;8724;51.272;6.554;2024-01-30T09:24:17;7.00;;;5.97;;
4700;SDS011;8724;51.272;6.554;2024-01-30T09:26:45;7.97;;;5.40;;
4700;SDS011;8724;51.272;6.554;2024-01-30T09:29:14;5.33;;;4.60;;
4700;SDS011;8724;51.272;6.554;2024-01-30T09:31:43;6.93;;;5.30;;
4700;SDS011;8724;51.272;6.554;2024-01-30T09:34:12;6.40;;;5.27;;
4700;SDS011;8724;51.272;6.554;2024-01-30T09:36:41;6.23;;;5.20;;
4700;SDS011;8724;51.272;6.554;2024-01-30T09:39:09;7.40;;;6.60;;
4700;SDS011;8724;51.272;6.554;2024-01-30T09:41:40;9.67;;;5.93;;
4700;SDS011;8724;51.272;6.554;2024-01-30T09:44:14;7.80;;;5.37;;
4700;SDS011;8724;51.272;6.554;2024-01-30T09:46:44;6.70;;;5.20;;
4700;SDS011;8724;51.272;6.554;2024-01-30T09:49:14;5.90;;;5.23;;
4700;SDS011;8724;51.272;6.554;2024-01-30T09:51:47;6.17;;;5.30;;
4700;SDS011;8724;51.272;6.554;2024-01-30T09:54:16;5.60;;;4.93;;
4700;SDS011;8724;51.272;6.554;2024-01-30T09:56:47;5.67;;;5.17;;
4700;SDS011;8724;51.272;6.554;2024-01-30T09:59:16;8.20;;;5.47;;
4700;SDS011;8724;51.272;6.554;2024-01-30T10:01:45;5.37;;;4.87;;
4700;SDS011;8724;51.272;6.554;2024-01-30T10:04:13;5.97;;;5.43;;
4700;SDS011;8724;51.272;6.554;2024-01-30T10:06:42;7.40;;;5.50;;
4700;SDS011;8724;51.272;6.554;2024-01-30T10:09:10;7.53;;;5.53;;
4700;SDS011;8724;51.272;6.554;2024-01-30T10:11:39;7.20;;;5.37;;
4700;SDS011;8724;51.272;6.554;2024-01-30T10:14:07;4.90;;;4.40;;
4700;SDS011;8724;51.272;6.554;2024-01-30T10:16:37;6.40;;;5.30;;
4700;SDS011;8724;51.272;6.554;2024-01-30T10:19:05;6.87;;;6.17;;
4700;SDS011;8724;51.272;6.554;2024-01-30T10:21:34;6.03;;;5.50;;
4700;SDS011;8724;51.272;6.554;2024-01-30T10:24:02;5.17;;;4.50;;
4700;SDS011;8724;51.272;6.554;2024-01-30T10:26:31;5.57;;;4.90;;
4700;SDS011;8724;51.272;6.554;2024-01-30T10:29:00;5.77;;;5.07;;
4700;SDS011;8724;51.272;6.554;2024-01-30T10:31:29;6.60;;;5.27;;
4700;SDS011;8724;51.272;6.554;2024-01-30T10:33:58;6.80;;;6.10;;
4700;SDS011;8724;51.272;6.554;2024-01-30T10:36:42;9.50;;;5.90;;
4700;SDS011;8724;51.272;6.554;2024-01-30T10:39:13;7.70;;;6.70;;
4700;SDS011;8724;51.272;6.554;2024-01-30T10:41:44;8.87;;;6.80;;
4700;SDS011;8724;51.272;6.554;2024-01-30T10:44:16;11.83;;;6.93;;
4700;SDS011;8724;51.272;6.554;2024-01-30T10:46:48;8.00;;;6.93;;
4700;SDS011;8724;51.272;6.554;2024-01-30T10:49:21;9.30;;;6.37;;
4700;SDS011;8724;51.272;6.554;2024-01-30T10:51:51;9.60;;;6.07;;
4700;SDS011;8724;51.272;6.554;2024-01-30T10:54:19;6.23;;;5.63;;
4700;SDS011;8724;51.272;6.554;2024-01-30T10:56:50;6.97;;;6.17;;
4700;SDS011;8724;51.272;6.554;2024-01-30T10:59:19;8.93;;;6.73;;
4700;SDS011;8724;51.272;6.554;2024-01-30T11:01:50;8.77;;;6.43;;
4700;SDS011;8724;51.272;6.554;2024-01-30T11:04:20;8.40;;;5.83;;
4700;SDS011;8724;51.272;6.554;2024-01-30T11:06:49;9.53;;;5.93;;
4700;SDS011;8724;51.272;6.554;2024-01-30T11:09:18;9.83;;;6.00;;
4700;SDS011;8724;51.272;6.554;2024-01-30T11:11:49;6.67;;;5.20;;
4700;SDS011;8724;51.272;6.554;2024-01-30T11:14:22;5.83;;;5.23;;
4700;SDS011;8724;51.272;6.554;2024-01-30T11:16:52;6.80;;;5.40;;
4700;SDS011;8724;51.272;6.554;2024-01-30T11:19:24;7.33;;;6.63;;
4700;SDS011;8724;51.272;6.554;2024-01-30T11:21:54;7.27;;;6.40;;
4700;SDS011;8724;51.272;6.554;2024-01-30T11:24:24;7.70;;;5.90;;
4700;SDS011;8724;51.272;6.554;2024-01-30T11:26:55;7.07;;;5.83;;
4700;SDS011;8724;51.272;6.554;2024-01-30T11:29:24;6.40;;;5.80;;
4700;SDS011;8724;51.272;6.554;2024-01-30T11:31:52;7.30;;;6.00;;
4700;SDS011;8724;51.272;6.554;2024-01-30T11:34:21;8.23;;;6.60;;
4700;SDS011;8724;51.272;6.554;2024-01-30T11:36:53;6.60;;;6.00;;
4700;SDS011;8724;51.272;6.554;2024-01-30T11:39:25;6.57;;;5.93;;
4700;SDS011;8724;51.272;6.554;2024-01-30T11:41:54;7.67;;;5.80;;
4700;SDS011;8724;51.272;6.554;2024-01-30T11:44:22;8.90;;;6.97;;
4700;SDS011;8724;51.272;6.554;2024-01-30T11:46:51;6.60;;;5.87;;
4700;SDS011;8724;51.272;6.554;2024-01-30T11:49:20;6.30;;;5.00;;
4700;SDS011;8724;51.272;6.554;2024-01-30T11:51:48;5.77;;;5.23;;
4700;SDS011;8724;51.272;6.554;2024-01-30T11:54:18;9.63;;;6.23;;
4700;SDS011;8724;51.272;6.554;2024-01-30T11:56:46;8.90;;;5.13;;
4700;SDS011;8724;51.272;6.554;2024-01-30T11:59:14;5.80;;;5.20;;
4700;SDS011;8724;51.272;6.554;2024-01-30T12:01:42;5.77;;;5.00;;
4700;SDS011;8724;51.272;6.554;2024-01-30T12:04:11;6.53;;;4.60;;
4700;SDS011;8724;51.272;6.554;2024-01-30T12:06:39;5.03;;;4.57;;
4700;SDS011;8724;51.272;6.554;2024-01-30T12:09:08;6.83;;;4.57;;
4700;SDS011;8724;51.272;6.554;2024-01-30T12:11:44;7.57;;;4.50;;
4700;SDS011;8724;51.272;6.554;2024-01-30T12:14:13;6.00;;;4.70;;
4700;SDS011;8724;51.272;6.554;2024-01-30T12:16:42;9.93;;;4.90;;
4700;SDS011;8724;51.272;6.554;2024-01-30T12:19:10;9.87;;;5.00;;
4700;SDS011;8724;51.272;6.554;2024-01-30T12:21:38;6.50;;;4.60;;
4700;SDS011;8724;51.272;6.554;2024-01-30T12:24:07;6.37;;;4.60;;
4700;SDS011;8724;51.272;6.554;2024-01-30T12:26:35;8.50;;;4.63;;
4700;SDS011;8724;51.272;6.554;2024-01-30T12:29:05;7.57;;;4.70;;
4700;SDS011;8724;51.272;6.554;2024-01-30T12:31:33;7.30;;;4.57;;
4700;SDS011;8724;51.272;6.554;2024-01-30T12:34:01;6.33;;;4.67;;
4700;SDS011;8724;51.272;6.554;2024-01-30T12:36:30;4.93;;;3.90;;
4700;SDS011;8724;51.272;6.554;2024-01-30T12:38:58;5.80;;;3.80;;
4700;SDS011;8724;51.272;6.554;2024-01-30T12:41:27;6.30;;;4.20;;
4700;SDS011;8724;51.272;6.554;2024-01-30T12:43:57;12.40;;;4.40;;
4700;SDS011;8724;51.272;6.554;2024-01-30T12:46:28;5.87;;;4.70;;
4700;SDS011;8724;51.272;6.554;2024-01-30T12:48:57;6.63;;;3.93;;
4700;SDS011;8724;51.272;6.554;2024-01-30T12:51:25;11.17;;;5.03;;
4700;SDS011;8724;51.272;6.554;2024-01-30T12:53:53;5.30;;;4.53;;
4700;SDS011;8724;51.272;6.554;2024-01-30T12:56:22;6.83;;;5.07;;
4700;SDS011;8724;51.272;6.554;2024-01-30T12:58:50;5.37;;;4.87;;
4700;SDS011;8724;51.272;6.554;2024-01-30T13:01:21;9.43;;;4.40;;
4700;SDS011;8724;51.272;6.554;2024-01-30T13:03:50;12.50;;;5.13;;
4700;SDS011;8724;51.272;6.554;2024-01-30T13:06:20;7.97;;;4.77;;
4700;SDS011;8724;51.272;6.554;2024-01-30T13:08:49;6.20;;;5.50;;
4700;SDS011;8724;51.272;6.554;2024-01-30T13:11:17;5.00;;;4.47;;
4700;SDS011;8724;51.272;6.554;2024-01-30T13:13:47;4.43;;;3.93;;
4700;SDS011;8724;51.272;6.554;2024-01-30T13:16:15;7.67;;;4.97;;
4700;SDS011;8724;51.272;6.554;2024-01-30T13:18:44;6.17;;;5.40;;
4700;SDS011;8724;51.272;6.554;2024-01-30T13:21:13;8.50;;;4.20;;
4700;SDS011;8724;51.272;6.554;2024-01-30T13:23:41;8.43;;;4.60;;
4700;SDS011;8724;51.272;6.554;2024-01-30T13:26:10;8.40;;;5.13;;
4700;SDS011;8724;51.272;6.554;2024-01-30T13:28:38;5.77;;;4.37;;
4700;SDS011;8724;51.272;6.554;2024-01-30T13:31:07;5.03;;;3.67;;
4700;SDS011;8724;51.272;6.554;2024-01-30T13:33:35;6.80;;;4.70;;
4700;SDS011;8724;51.272;6.554;2024-01-30T13:36:04;4.50;;;4.17;;
4700;SDS011;8724;51.272;6.554;2024-01-30T13:38:34;4.57;;;3.90;;
4700;SDS011;8724;51.272;6.554;2024-01-30T13:41:02;4.20;;;3.80;;
4700;SDS011;8724;51.272;6.554;2024-01-30T13:43:31;6.20;;;4.57;;
4700;SDS011;8724;51.272;6.554;2024-01-30T13:45:59;7.87;;;5.20;;
4700;SDS011;8724;51.272;6.554;2024-01-30T13:48:27;6.40;;;4.60;;
4700;SDS011;8724;51.272;6.554;2024-01-30T13:50:56;7.67;;;5.03;;
4700;SDS011;8724;51.272;6.554;2024-01-30T13:53:24;8.80;;;5.30;;
4700;SDS011;8724;51.272;6.554;2024-01-30T13:55:54;8.87;;;4.73;;
4700;SDS011;8724;51.272;6.554;2024-01-30T13:58:22;7.87;;;5.63;;
4700;SDS011;8724;51.272;6.554;2024-01-30T14:00:50;8.23;;;5.00;;
4700;SDS011;8724;51.272;6.554;2024-01-30T14:03:19;7.47;;;5.07;;
4700;SDS011;8724;51.272;6.554;2024-01-30T14:05:47;11.00;;;6.10;;
4700;SDS011;8724;51.272;6.554;2024-01-30T14:08:16;9.43;;;4.60;;
4700;SDS011;8724;51.272;6.554;2024-01-30T14:10:44;7.67;;;4.77;;
4700;SDS011;8724;51.272;6.554;2024-01-30T14:13:14;9.47;;;5.60;;
4700;SDS011;8724;51.272;6.554;2024-01-30T14:15:43;7.10;;;4.97;;
4700;SDS011;8724;51.272;6.554;2024-01-30T14:18:11;7.80;;;5.03;;
4700;SDS011;8724;51.272;6.554;2024-01-30T14:20:39;12.40;;;6.57;;
4700;SDS011;8724;51.272;6.554;2024-01-30T14:23:07;8.10;;;5.40;;
4700;SDS011;8724;51.272;6.554;2024-01-30T14:25:36;10.93;;;5.90;;
4700;SDS011;8724;51.272;6.554;2024-01-30T14:28:04;11.17;;;5.63;;
4700;SDS011;8724;51.272;6.554;2024-01-30T14:30:35;5.17;;;4.67;;
4700;SDS011;8724;51.272;6.554;2024-01-30T14:33:03;9.93;;;5.43;;
4700;SDS011;8724;51.272;6.554;2024-01-30T14:35:33;6.97;;;5.00;;
4700;SDS011;8724;51.272;6.554;2024-01-30T14:38:01;7.90;;;4.83;;
4700;SDS011;8724;51.272;6.554;2024-01-30T14:40:31;10.70;;;5.43;;
4700;SDS011;8724;51.272;6.554;2024-01-30T14:43:00;5.87;;;5.20;;
4700;SDS011;8724;51.272;6.554;2024-01-30T14:45:28;5.03;;;4.17;;
4700;SDS011;8724;51.272;6.554;2024-01-30T14:47:59;4.93;;;4.13;;
4700;SDS011;8724;51.272;6.554;2024-01-30T14:50:27;4.97;;;4.30;;
4700;SDS011;8724;51.272;6.554;2024-01-30T14:52:55;4.80;;;3.47;;
4700;SDS011;8724;51.272;6.554;2024-01-30T14:55:25;5.50;;;3.27;;
4700;SDS011;8724;51.272;6.554;2024-01-30T14:57:53;6.37;;;3.60;;
4700;SDS011;8724;51.272;6.554;2024-01-30T15:00:21;4.20;;;3.00;;
4700;SDS011;8724;51.272;6.554;2024-01-30T15:02:50;5.70;;;3.10;;
4700;SDS011;8724;51.272;6.554;2024-01-30T15:05:19;5.70;;;2.80;;
4700;SDS011;8724;51.272;6.554;2024-01-30T15:07:47;6.07;;;2.70;;
4700;SDS011;8724;51.272;6.554;2024-01-30T15:10:16;3.23;;;2.93;;
4700;SDS011;8724;51.272;6.554;2024-01-30T15:12:45;4.50;;;2.40;;
4700;SDS011;8724;51.272;6.554;2024-01-30T15:15:13;4.07;;;2.10;;
4700;SDS011;8724;51.272;6.554;2024-01-30T15:17:41;3.13;;;2.30;;
4700;SDS011;8724;51.272;6.554;2024-01-30T15:20:09;3.17;;;2.23;;
4700;SDS011;8724;51.272;6.554;2024-01-30T15:22:39;4.57;;;2.17;;
4700;SDS011;8724;51.272;6.554;2024-01-30T15:25:07;5.70;;;1.70;;
4700;SDS011;8724;51.272;6.554;2024-01-30T15:27:36;4.43;;;1.80;;